createdAt,value
2019-02-20T00:00:55.526Z,5.00
2019-02-20T00:03:27.961Z,6.03
2019-02-20T00:05:59.055Z,5.13
2019-02-20T00:08:29.742Z,5.00
2019-02-20T00:11:18.432Z,6.73
2019-02-20T00:13:49.211Z,5.57
2019-02-20T00:16:20.885Z,5.80
2019-02-20T00:18:51.631Z,5.10
2019-02-20T00:21:22.389Z,4.73
2019-02-20T00:23:53.057Z,5.63
2019-02-20T00:26:23.820Z,6.30
2019-02-20T00:28:54.517Z,5.40
2019-02-20T00:31:25.144Z,5.50
2019-02-20T00:33:55.850Z,5.07
2019-02-20T00:36:26.506Z,5.03
2019-02-20T00:38:57.202Z,5.03
2019-02-20T00:41:27.889Z,5.37
2019-02-20T00:44:08.118Z,5.50
2019-02-20T00:47:03.728Z,4.83
2019-02-20T00:49:38.516Z,4.77
2019-02-20T00:52:27.786Z,4.93
2019-02-20T00:54:58.481Z,5.30
2019-02-20T00:57:29.190Z,5.20
2019-02-20T01:00:18.031Z,5.07
2019-02-20T01:02:48.776Z,5.50
2019-02-20T01:05:19.604Z,5.20
2019-02-20T01:07:50.369Z,4.37
2019-02-20T01:10:21.066Z,4.83
2019-02-20T01:12:51.831Z,5.00
2019-02-20T01:15:22.650Z,5.00
2019-02-20T01:17:53.434Z,4.83
2019-02-20T01:20:24.120Z,5.13
2019-02-20T01:22:59.811Z,4.70
2019-02-20T01:25:27.235Z,4.83
2019-02-20T01:27:57.991Z,4.57
2019-02-20T01:30:28.705Z,5.43
2019-02-20T01:32:59.502Z,4.53
2019-02-20T01:35:30.217Z,4.90
2019-02-20T01:38:00.991Z,4.80
2019-02-20T01:40:34.460Z,4.50
2019-02-20T01:43:05.207Z,4.80
2019-02-20T01:45:35.936Z,4.80
2019-02-20T01:48:06.710Z,5.60
2019-02-20T01:50:37.412Z,5.23
2019-02-20T01:53:10.570Z,5.83
2019-02-20T01:55:40.498Z,4.80
2019-02-20T01:58:11.275Z,4.97
2019-02-20T02:00:42.201Z,5.17
2019-02-20T02:03:12.937Z,5.57
2019-02-20T02:05:43.674Z,4.60
2019-02-20T02:08:14.381Z,5.13
2019-02-20T02:10:45.115Z,4.87
2019-02-20T02:13:15.911Z,4.50
2019-02-20T02:15:46.628Z,5.00
2019-02-20T02:18:17.355Z,5.00
2019-02-20T02:20:48.101Z,5.80
2019-02-20T02:23:20.113Z,5.00
2019-02-20T02:25:51.124Z,5.40
2019-02-20T02:28:21.850Z,4.77
2019-02-20T02:30:52.557Z,5.40
2019-02-20T02:33:23.242Z,5.37
2019-02-20T02:35:54.028Z,4.87
2019-02-20T02:38:24.788Z,5.50
2019-02-20T02:40:55.541Z,4.73
2019-02-20T02:43:26.302Z,4.90
2019-02-20T02:45:57.029Z,4.70
2019-02-20T02:48:27.783Z,5.73
2019-02-20T02:50:58.555Z,5.70
2019-02-20T02:53:30.950Z,5.93
2019-02-20T02:56:01.703Z,6.73
2019-02-20T02:58:32.404Z,5.10
2019-02-20T03:01:03.151Z,4.97
2019-02-20T03:03:33.907Z,5.13
2019-02-20T03:06:04.647Z,5.13
2019-02-20T03:08:35.423Z,5.10
2019-02-20T03:11:06.159Z,5.70
2019-02-20T03:13:36.914Z,5.20
2019-02-20T03:16:07.620Z,6.27
2019-02-20T03:18:38.395Z,6.53
2019-02-20T03:21:09.101Z,7.27
2019-02-20T03:23:40.371Z,5.70
2019-02-20T03:26:11.464Z,6.50
2019-02-20T03:28:42.221Z,5.80
2019-02-20T03:31:12.913Z,6.13
2019-02-20T03:33:43.686Z,6.97
2019-02-20T03:36:14.388Z,7.47
2019-02-20T03:38:45.150Z,8.67
2019-02-20T03:41:15.863Z,9.17
2019-02-20T03:43:46.717Z,9.13
2019-02-20T03:46:36.510Z,8.77
2019-02-20T03:49:07.274Z,8.30
2019-02-20T03:51:38.010Z,9.30
2019-02-20T03:54:08.785Z,7.83
2019-02-20T03:56:39.725Z,8.30
2019-02-20T03:59:10.769Z,7.93
2019-02-20T04:01:51.002Z,7.63
2019-02-20T04:04:21.755Z,8.83
2019-02-20T04:06:52.450Z,7.47
2019-02-20T04:09:23.209Z,8.60
2019-02-20T04:11:53.951Z,7.30
2019-02-20T04:14:24.678Z,9.50
2019-02-20T04:16:55.394Z,9.63
2019-02-20T04:19:26.162Z,9.77
2019-02-20T04:21:56.885Z,8.47
2019-02-20T04:24:27.613Z,9.10
2019-02-20T04:26:58.354Z,8.30
2019-02-20T04:29:29.071Z,8.57
2019-02-20T04:31:59.842Z,7.80
2019-02-20T04:34:30.578Z,8.73
2019-02-20T04:37:01.344Z,10.13
2019-02-20T04:39:32.091Z,11.13
2019-02-20T04:42:02.869Z,9.67
2019-02-20T04:44:33.574Z,9.80
2019-02-20T04:47:04.389Z,10.77
2019-02-20T04:49:35.137Z,9.93
2019-02-20T04:52:05.892Z,10.53
2019-02-20T04:54:36.588Z,10.80
2019-02-20T04:57:07.344Z,10.73
2019-02-20T04:59:38.154Z,10.73
2019-02-20T05:02:08.877Z,11.30
2019-02-20T05:04:39.572Z,11.07
2019-02-20T05:07:10.329Z,11.10
2019-02-20T05:09:41.089Z,10.17
2019-02-20T05:12:11.811Z,10.50
2019-02-20T05:14:42.517Z,9.60
2019-02-20T05:17:13.308Z,10.17
2019-02-20T05:19:44.010Z,9.47
2019-02-20T05:22:14.758Z,11.30
2019-02-20T05:24:45.483Z,10.20
2019-02-20T05:27:16.252Z,9.33
2019-02-20T05:29:46.958Z,9.27
2019-02-20T05:32:17.731Z,10.13
2019-02-20T05:34:48.468Z,10.07
2019-02-20T05:37:19.195Z,10.30
2019-02-20T05:39:49.924Z,11.50
2019-02-20T05:42:20.667Z,11.03
2019-02-20T05:44:51.413Z,11.33
2019-02-20T05:47:22.170Z,10.97
2019-02-20T05:49:52.934Z,10.83
2019-02-20T05:52:23.702Z,11.40
2019-02-20T05:54:54.439Z,11.87
2019-02-20T05:57:25.213Z,9.83
2019-02-20T05:59:55.920Z,12.03
2019-02-20T06:02:26.695Z,11.50
2019-02-20T06:04:57.441Z,11.97
2019-02-20T06:07:28.117Z,11.33
2019-02-20T06:09:58.886Z,10.27
2019-02-20T06:12:29.629Z,11.63
2019-02-20T06:15:00.386Z,12.73
2019-02-20T06:17:31.092Z,12.07
2019-02-20T06:20:01.838Z,12.13
2019-02-20T06:22:32.648Z,11.00
2019-02-20T06:25:03.413Z,11.37
2019-02-20T06:27:34.167Z,11.97
2019-02-20T06:30:07.274Z,12.83
2019-02-20T06:32:37.980Z,11.93
2019-02-20T06:35:08.708Z,11.90
2019-02-20T06:37:39.463Z,11.97
2019-02-20T06:40:10.402Z,11.93
2019-02-20T06:42:41.155Z,11.23
2019-02-20T06:45:11.961Z,11.90
2019-02-20T06:47:42.669Z,11.80
2019-02-20T06:50:13.453Z,11.53
2019-02-20T06:52:44.191Z,11.70
2019-02-20T06:55:14.996Z,11.23
2019-02-20T06:57:45.703Z,12.33
2019-02-20T07:00:16.470Z,12.20
2019-02-20T07:02:47.243Z,11.60
2019-02-20T07:05:51.509Z,11.27
2019-02-20T07:09:07.386Z,10.80
2019-02-20T07:11:58.299Z,11.93
2019-02-20T07:15:01.402Z,11.00
2019-02-20T07:17:46.030Z,12.57
2019-02-20T07:20:52.560Z,10.40
2019-02-20T07:24:17.245Z,13.93
2019-02-20T07:27:25.239Z,11.43
2019-02-20T07:30:03.257Z,12.17
2019-02-20T07:32:34.002Z,11.67
2019-02-20T07:35:05.108Z,11.87
2019-02-20T07:37:35.958Z,11.20
2019-02-20T07:40:08.983Z,11.53
2019-02-20T07:42:39.779Z,10.73
2019-02-20T07:45:12.737Z,11.07
2019-02-20T07:47:43.534Z,12.70
2019-02-20T07:50:16.778Z,12.20
2019-02-20T07:52:47.745Z,10.87
2019-02-20T07:55:18.670Z,11.13
2019-02-20T07:57:50.324Z,10.70
2019-02-20T08:02:14.031Z,11.40
2019-02-20T08:04:44.840Z,11.77
2019-02-20T08:07:15.563Z,11.63
2019-02-20T08:09:46.189Z,10.93
2019-02-20T08:12:16.979Z,10.63
2019-02-20T08:14:47.633Z,10.03
2019-02-20T08:17:18.386Z,11.63
2019-02-20T08:19:49.069Z,11.17
2019-02-20T08:22:32.717Z,10.90
2019-02-20T08:25:03.572Z,10.63
2019-02-20T08:27:34.315Z,11.43
2019-02-20T08:30:07.343Z,11.23
2019-02-20T08:32:38.109Z,11.47
2019-02-20T08:35:09.117Z,11.80
2019-02-20T08:37:39.933Z,11.50
2019-02-20T08:40:13.168Z,11.10
2019-02-20T08:42:44.238Z,12.20
2019-02-20T08:45:14.970Z,11.23
2019-02-20T08:47:45.727Z,11.00
2019-02-20T08:50:16.953Z,11.73
2019-02-20T08:52:47.699Z,11.13
2019-02-20T08:55:19.005Z,12.80
2019-02-20T08:57:49.882Z,11.70
2019-02-20T09:00:21.075Z,11.47
2019-02-20T09:02:51.898Z,12.37
2019-02-20T09:05:22.672Z,12.03
2019-02-20T09:07:53.404Z,10.97
2019-02-20T09:10:24.145Z,11.60
2019-02-20T09:12:54.889Z,11.23
2019-02-20T09:15:25.615Z,10.80
2019-02-20T09:17:56.361Z,11.37
2019-02-20T09:20:27.097Z,11.67
2019-02-20T09:22:57.844Z,12.27
2019-02-20T09:25:28.635Z,11.87
2019-02-20T09:27:59.411Z,11.97
2019-02-20T09:30:30.291Z,12.27
2019-02-20T09:33:01.247Z,12.33
2019-02-20T09:35:31.965Z,12.43
2019-02-20T09:38:02.561Z,12.17
2019-02-20T09:40:33.287Z,12.03
2019-02-20T09:43:04.042Z,11.43
2019-02-20T09:45:41.648Z,12.03
2019-02-20T09:48:07.090Z,13.53
2019-02-20T09:50:37.911Z,12.30
2019-02-20T09:53:08.644Z,13.40
2019-02-20T09:55:39.304Z,12.97
2019-02-20T09:58:10.041Z,14.13
2019-02-20T10:00:40.698Z,14.27
2019-02-20T10:03:11.409Z,14.23
2019-02-20T10:05:42.180Z,13.97
2019-02-20T10:08:12.924Z,14.50
2019-02-20T10:10:43.513Z,14.97
2019-02-20T10:13:14.171Z,14.87
2019-02-20T10:15:44.897Z,14.10
2019-02-20T10:18:15.662Z,14.57
2019-02-20T10:20:46.309Z,15.10
2019-02-20T10:23:16.964Z,14.17
2019-02-20T10:25:47.700Z,14.13
2019-02-20T10:28:18.447Z,14.17
2019-02-20T10:30:49.142Z,14.17
2019-02-20T10:33:21.346Z,14.33
2019-02-20T10:35:53.564Z,14.20
2019-02-20T10:38:24.343Z,14.27
2019-02-20T10:41:13.355Z,14.37
2019-02-20T10:43:44.100Z,15.40
2019-02-20T10:46:14.806Z,15.20
2019-02-20T10:48:45.573Z,13.60
2019-02-20T10:51:16.331Z,13.50
2019-02-20T10:53:49.356Z,15.17
2019-02-20T10:59:13.104Z,12.27
2019-02-20T11:01:43.900Z,12.50
2019-02-20T11:04:15.737Z,12.20
2019-02-20T11:06:46.443Z,11.57
2019-02-20T11:09:17.225Z,11.80
2019-02-20T11:11:47.931Z,11.30
2019-02-20T11:14:18.662Z,12.83
2019-02-20T11:16:49.330Z,12.00
2019-02-20T11:19:20.065Z,11.80
2019-02-20T11:21:50.791Z,11.97
2019-02-20T11:24:21.531Z,10.53
2019-02-20T11:26:54.985Z,12.63
2019-02-20T11:29:24.620Z,13.73
2019-02-20T11:31:56.515Z,15.70
2019-02-20T11:34:27.423Z,12.23
2019-02-20T11:36:58.070Z,11.57
2019-02-20T11:39:37.289Z,11.83
2019-02-20T11:42:01.077Z,13.37
2019-02-20T11:44:31.759Z,12.57
2019-02-20T11:47:02.605Z,13.50
2019-02-20T11:49:33.362Z,11.47
2019-02-20T11:52:04.108Z,15.67
2019-02-20T11:54:34.806Z,14.30
2019-02-20T11:57:05.531Z,12.67
2019-02-20T11:59:36.387Z,14.93
2019-02-20T12:02:07.224Z,14.30
2019-02-20T12:04:37.929Z,12.83
2019-02-20T12:07:08.669Z,13.20
2019-02-20T12:09:39.403Z,10.93
2019-02-20T12:12:10.154Z,10.90
2019-02-20T12:14:40.910Z,11.40
2019-02-20T12:17:11.652Z,11.83
2019-02-20T12:22:03.954Z,10.70
2019-02-20T12:24:34.739Z,11.13
2019-02-20T12:27:05.495Z,10.67
2019-02-20T12:29:36.132Z,9.83
2019-02-20T12:32:06.943Z,9.33
2019-02-20T12:34:37.614Z,9.07
2019-02-20T12:37:08.270Z,10.63
2019-02-20T12:39:38.977Z,9.80
2019-02-20T12:42:10.629Z,8.23
2019-02-20T12:44:41.328Z,8.53
2019-02-20T12:47:12.056Z,8.43
2019-02-20T12:49:43.754Z,9.60
2019-02-20T12:52:14.468Z,8.63
2019-02-20T12:54:45.196Z,8.70
2019-02-20T12:57:15.952Z,8.17
2019-02-20T12:59:46.569Z,8.20
2019-02-20T13:02:17.326Z,8.63
2019-02-20T13:04:48.002Z,8.07
2019-02-20T13:07:18.677Z,8.47
2019-02-20T13:09:50.179Z,7.70
2019-02-20T13:12:21.141Z,6.60
2019-02-20T13:14:51.778Z,6.53
2019-02-20T13:17:22.434Z,6.70
2019-02-20T13:19:53.109Z,6.73
2019-02-20T13:22:23.786Z,6.50
2019-02-20T13:25:12.417Z,6.17
2019-02-20T13:28:00.897Z,5.90
2019-02-20T13:30:50.213Z,5.73
2019-02-20T13:33:38.921Z,6.90
2019-02-20T13:36:27.959Z,6.33
2019-02-20T13:39:16.520Z,5.83
2019-02-20T13:42:04.969Z,6.20
2019-02-20T13:44:54.242Z,6.00
2019-02-20T13:47:43.752Z,5.23
2019-02-20T13:50:32.383Z,5.60
2019-02-20T13:53:20.773Z,5.63
2019-02-20T13:56:10.004Z,5.70
2019-02-20T13:58:40.781Z,5.37
2019-02-20T14:01:11.703Z,5.93
2019-02-20T14:03:42.495Z,5.90
2019-02-20T14:06:15.045Z,4.90
2019-02-20T14:08:45.876Z,5.47
2019-02-20T14:11:16.712Z,5.70
2019-02-20T14:13:47.514Z,4.83
2019-02-20T14:16:18.335Z,4.73
2019-02-20T14:18:49.133Z,4.87
2019-02-20T14:21:19.969Z,5.13
2019-02-20T14:23:51.086Z,5.07
2019-02-20T14:26:21.063Z,5.20
2019-02-20T14:28:51.857Z,4.70
2019-02-20T14:31:22.679Z,4.30
2019-02-20T14:33:53.452Z,5.07
2019-02-20T14:36:24.276Z,4.10
2019-02-20T14:38:55.063Z,4.80
2019-02-20T14:41:25.903Z,4.50
2019-02-20T14:43:56.694Z,4.90
2019-02-20T14:46:27.553Z,5.70
2019-02-20T14:49:02.388Z,5.43
2019-02-20T14:51:54.762Z,5.73
2019-02-20T14:54:26.062Z,5.20
2019-02-20T14:56:58.116Z,4.33
2019-02-20T14:59:30.253Z,4.77
2019-02-20T15:02:02.639Z,4.63
2019-02-20T15:04:38.087Z,7.80
2019-02-20T15:07:09.307Z,6.87
2019-02-20T15:09:41.991Z,5.50
2019-02-20T15:12:16.247Z,5.10
2019-02-20T15:15:10.106Z,5.27
2019-02-20T15:17:41.187Z,5.07
2019-02-20T15:20:15.293Z,5.50
2019-02-20T15:22:47.988Z,4.80
2019-02-20T15:25:31.618Z,4.97
2019-02-20T15:28:06.116Z,5.13
2019-02-20T15:30:38.844Z,5.10
2019-02-20T15:33:12.440Z,5.30
2019-02-20T15:35:46.647Z,4.90
2019-02-20T15:38:21.778Z,5.33
2019-02-20T15:40:53.809Z,5.57
2019-02-20T15:43:30.714Z,6.67
2019-02-20T15:46:05.843Z,5.27
2019-02-20T15:48:40.917Z,5.30
2019-02-20T15:51:30.530Z,5.60
2019-02-20T15:54:14.352Z,5.90
2019-02-20T15:56:49.734Z,5.23
2019-02-20T15:59:24.960Z,5.30
2019-02-20T16:02:01.524Z,5.00
2019-02-20T16:04:34.846Z,4.90
2019-02-20T16:07:07.530Z,5.40
2019-02-20T16:09:40.318Z,5.70
2019-02-20T16:12:13.365Z,5.50
2019-02-20T16:14:56.553Z,4.97
2019-02-20T16:17:29.299Z,8.53
2019-02-20T16:20:02.027Z,9.03
2019-02-20T16:22:54.188Z,10.03
2019-02-20T16:25:26.915Z,6.57
2019-02-20T16:27:59.552Z,6.00
2019-02-20T16:30:32.281Z,7.13
2019-02-20T16:33:15.260Z,5.90
2019-02-20T16:35:48.536Z,7.70
2019-02-20T16:38:32.544Z,25.50
2019-02-20T16:41:05.661Z,17.30
2019-02-20T16:43:49.818Z,19.40
2019-02-20T16:46:22.598Z,17.97
2019-02-20T16:48:55.306Z,14.87
2019-02-20T16:51:38.225Z,9.00
2019-02-20T16:54:10.992Z,7.97
2019-02-20T16:56:43.708Z,7.30
2019-02-20T16:59:14.549Z,5.93
2019-02-20T17:01:45.882Z,6.80
2019-02-20T17:04:25.333Z,6.00
2019-02-20T17:06:56.241Z,7.10
2019-02-20T17:09:27.083Z,6.33
2019-02-20T17:11:58.029Z,6.77
2019-02-20T17:14:28.894Z,6.47
2019-02-20T17:16:59.781Z,6.33
2019-02-20T17:19:30.637Z,6.57
2019-02-20T17:22:01.534Z,6.53
2019-02-20T17:24:33.403Z,6.60
2019-02-20T17:27:04.558Z,6.23
2019-02-20T17:29:35.424Z,7.17
2019-02-20T17:32:06.299Z,7.00
2019-02-20T17:34:37.137Z,6.17
2019-02-20T17:37:08.082Z,6.57
2019-02-20T17:39:38.770Z,7.00
2019-02-20T17:42:09.525Z,6.80
2019-02-20T17:44:42.083Z,7.50
2019-02-20T17:47:13.199Z,14.90
2019-02-20T17:49:43.924Z,17.17
2019-02-20T17:52:14.704Z,15.50
2019-02-20T17:54:45.382Z,12.67
2019-02-20T17:57:16.142Z,12.50
2019-02-20T17:59:46.861Z,11.13
2019-02-20T18:02:17.593Z,17.03
2019-02-20T18:04:48.333Z,10.93
2019-02-20T18:07:19.041Z,11.80
2019-02-20T18:09:49.748Z,25.27
2019-02-20T18:12:20.442Z,131.83
2019-02-20T18:14:51.213Z,88.23
2019-02-20T18:17:23.583Z,75.93
2019-02-20T18:19:54.481Z,143.87
2019-02-20T18:22:25.206Z,76.33
2019-02-20T18:24:55.933Z,39.73
2019-02-20T18:27:26.642Z,32.30
2019-02-20T18:29:57.472Z,37.70
2019-02-20T18:32:28.271Z,21.07
2019-02-20T18:34:59.063Z,11.63
2019-02-20T18:37:29.857Z,11.97
2019-02-20T18:40:00.605Z,10.50
2019-02-20T18:42:31.377Z,8.53
2019-02-20T18:45:02.178Z,7.57
2019-02-20T18:47:34.021Z,7.13
2019-02-20T18:50:04.957Z,7.87
2019-02-20T18:52:54.006Z,8.50
2019-02-20T18:56:02.269Z,9.53
2019-02-20T18:58:51.262Z,9.23
2019-02-20T19:01:41.065Z,7.77
2019-02-20T19:04:30.150Z,9.40
2019-02-20T19:07:19.346Z,11.50
2019-02-20T19:10:11.783Z,8.50
2019-02-20T19:13:32.495Z,11.27
2019-02-20T19:16:50.238Z,12.80
2019-02-20T19:19:40.730Z,13.07
2019-02-20T19:22:37.678Z,11.70
2019-02-20T19:26:22.895Z,10.33
2019-02-20T19:29:25.778Z,8.27
2019-02-20T19:32:27.056Z,8.57
2019-02-20T19:35:13.056Z,8.47
2019-02-20T19:38:19.797Z,7.90
2019-02-20T19:42:00.572Z,8.10
2019-02-20T19:45:16.845Z,7.00
2019-02-20T19:48:11.981Z,7.63
2019-02-20T19:50:57.289Z,7.50
2019-02-20T19:53:48.535Z,7.60
2019-02-20T19:57:00.447Z,7.63
2019-02-20T20:00:30.367Z,8.50
2019-02-20T20:03:39.873Z,8.07
2019-02-20T20:06:38.384Z,8.13
2019-02-20T20:09:24.307Z,6.87
2019-02-20T20:12:38.592Z,7.73
2019-02-20T20:15:27.078Z,34.27
2019-02-20T20:18:41.108Z,52.83
2019-02-20T20:21:55.986Z,48.93
2019-02-20T20:25:09.694Z,42.23
2019-02-20T20:28:06.562Z,19.00
2019-02-20T20:31:06.276Z,19.40
2019-02-20T20:34:20.173Z,17.03
2019-02-20T20:37:16.342Z,9.53
2019-02-20T20:40:19.929Z,25.23
2019-02-20T20:43:20.396Z,19.67
2019-02-20T20:46:27.429Z,10.20
2019-02-20T20:49:25.577Z,14.63
2019-02-20T20:52:55.869Z,13.57
2019-02-20T20:56:08.994Z,12.57
2019-02-20T20:59:17.477Z,14.83
2019-02-20T21:02:13.783Z,11.80
2019-02-20T21:05:49.884Z,10.10
2019-02-20T21:08:47.716Z,10.63
2019-02-20T21:12:04.246Z,31.00
2019-02-20T21:15:16.112Z,28.60
2019-02-20T21:18:49.026Z,9.67
2019-02-20T21:21:32.021Z,28.70
2019-02-20T21:24:43.716Z,14.93
2019-02-20T21:27:52.344Z,13.63
2019-02-20T21:31:05.779Z,9.23
2019-02-20T21:34:15.237Z,10.70
2019-02-20T21:37:03.124Z,8.30
2019-02-20T21:39:45.743Z,9.13
2019-02-20T21:42:53.418Z,9.47
2019-02-20T21:45:51.451Z,9.97
2019-02-20T21:49:06.337Z,9.17
2019-02-20T21:52:10.152Z,8.90
2019-02-20T21:55:37.752Z,8.40
2019-02-20T21:58:35.226Z,8.43
2019-02-20T22:01:27.495Z,7.87
2019-02-20T22:04:42.253Z,8.77
2019-02-20T22:08:05.582Z,8.60
2019-02-20T22:11:14.157Z,8.73
2019-02-20T22:14:20.392Z,10.60
2019-02-20T22:17:16.269Z,9.23
2019-02-20T22:20:39.823Z,9.57
2019-02-20T22:23:50.392Z,8.23
2019-02-20T22:27:05.185Z,9.10
2019-02-20T22:30:04.440Z,9.53
2019-02-20T22:33:10.423Z,9.50
2019-02-20T22:36:29.122Z,9.50
2019-02-20T22:39:42.888Z,9.60
2019-02-20T22:42:56.393Z,9.17
2019-02-20T22:45:56.618Z,9.27
2019-02-20T22:48:36.236Z,10.03
2019-02-20T22:51:36.798Z,10.07
2019-02-20T22:54:43.594Z,9.83
2019-02-20T22:57:57.021Z,10.40
2019-02-20T23:01:05.647Z,9.73
2019-02-20T23:04:25.314Z,9.43
2019-02-20T23:07:20.946Z,10.33
2019-02-20T23:10:21.630Z,10.90
2019-02-20T23:13:20.282Z,11.13
2019-02-20T23:15:50.980Z,10.23
2019-02-20T23:18:21.715Z,10.53
2019-02-20T23:20:52.411Z,10.07
2019-02-20T23:23:23.097Z,10.47
2019-02-20T23:25:53.813Z,10.13
2019-02-20T23:28:24.512Z,9.60
2019-02-20T23:30:55.097Z,10.40
2019-02-20T23:33:25.902Z,10.83
2019-02-20T23:35:56.556Z,10.33
2019-02-20T23:38:27.235Z,11.10
2019-02-20T23:40:57.931Z,11.23
2019-02-20T23:44:15.388Z,11.23
2019-02-20T23:46:46.175Z,10.87
2019-02-20T23:49:16.921Z,10.30
2019-02-20T23:51:47.594Z,11.40
2019-02-20T23:54:18.294Z,10.10
2019-02-20T23:56:49.080Z,10.90
2019-02-20T23:59:19.816Z,10.87
